Lum, Michigan
Current Conditions -  °F | °C
As of 3:13 PM on Thursday 23 Oct 2014 (Local Time) from KD95 Reporting Station
Clear Clear  
Wind Chill: 55°   Ceiling: Unl
Heat Index: 55°   Visibility: 10mi
Dew Point: 37°   Wind: 7mph
Humidity: 52%   Direction: 270°W
Pressure: 30.16"   Gusts: NA
Location:  43.0581°N, 83.167°W
Report Text: KD95 231913Z AUTO 27006KT 10SM CLR 13/03 A3016 RMK AO2 T01250030
Loading
Personal Weather Stations






























Interactive Weather Map New forecast layout! Learn more

10-Day Weather Forecast

Advertisements
Track Severe Weather on mobile